Aeroporto :
LOGIN :

Iscrizione | Disclaimer

   EN    FR    IT 

 










Sommario :    VFR   VFR Marginale   IFR   IFR Intensivo   IFR Molto Intensivo
Visibilità : 
Base nubi : 
>= 8 km
>= 3000ft
5 / 8 km
1000 / 3000 ft
1500m / 5 km
500 / 1000 ft
800 / 1500m
200 / 500 ft
< 800m
< 200 ft
Simboli :   Temporali  Nebbia  Neve Forte  Precipitazioni Forti  Vento > 20 kt
SIGMETs :   Varie  Temporali  Ghiacco  Turbolenza  Onda orograficha  Ceneri Vulcaniche







- Altitudine del aeroporto : 238 ft
- Codice IATA : FAB
- Carte del aeroporto


EGLF - Farnborough

ULTIMO METAR :
  • 161220Z AUTO 21019KT 170V240 9999 SCT026/// 19/12 Q1016

METARs OBSOLETI :
  • 161150Z AUTO 21017G27KT 9999 FEW023/// 19/12 Q1016
  • 161120Z 20020KT 9999 SCT017 SCT022 18/12 Q1016
  • 161050Z 21015KT 180V240 9999 SCT015 SCT020 17/13 Q1016
  • 161020Z 20015KT 9999 VCSH FEW008 BKN020 16/14 Q1016
  • 160950Z 20012KT 180V240 9999 VCSH SCT009 BKN018 16/13 Q1016

TAF TAF EGLF
Valido dal 16 a 12 ore il 16 a 20 ore UTC


161103Z 1612/1620 20012KT 9999 SCT020
PROB30
TEMPO 1612/1616 22015G25KT 8000 SHRA BKN010
ATIS : +44 09063 800 400 (*282)
Nessun NOTAM noto per questo aeroporto.



MetMap, La meteo Aeronautica in un colpo d'occhio ! - Copyright ORBIFLY Dicembre 2007 - Disclaimer

ORBIFLY MET'MAP TEAM :

Programmazione e sviluppo : Alexandra Zaïnal
Concezione e sviluppo : Baudouin d'Aumeries
Co-Programmazione e sviluppo : Marc-Olivier Méhu
Supporto tecnico e logistico : Manuel Goepfert
Aiuto per la traduzione : Arnaldo La Scala

Contatto : metmap@orbifly.com




FONTI E CREDITI :

   NOAA